createdAt,value
2023-03-26T00:01:51.079Z,97842.59
2023-03-26T00:04:21.776Z,97835.56
2023-03-26T00:06:50.314Z,97831.81
2023-03-26T00:09:18.464Z,97834.63
2023-03-26T00:11:46.715Z,97834.47
2023-03-26T00:14:17.509Z,97836.84
2023-03-26T00:16:47.490Z,97842.19
2023-03-26T00:19:15.501Z,97845.31
2023-03-26T00:21:43.017Z,97846.06
2023-03-26T00:24:15.244Z,97843.00
2023-03-26T00:26:43.592Z,97838.72
2023-03-26T00:29:13.435Z,97835.59
2023-03-26T00:31:41.123Z,97830.44
2023-03-26T00:34:10.454Z,97833.38
2023-03-26T00:36:37.864Z,97834.94
2023-03-26T00:39:05.754Z,97839.56
2023-03-26T00:41:36.869Z,97837.44
2023-03-26T00:44:04.549Z,97842.22
2023-03-26T00:46:32.819Z,97841.91
2023-03-26T00:49:01.702Z,97841.94
2023-03-26T00:51:29.688Z,97839.41
2023-03-26T00:53:57.945Z,97834.91
2023-03-26T00:56:26.011Z,97823.63
2023-03-26T00:58:53.348Z,97816.06
2023-03-26T01:01:27.858Z,97815.38
2023-03-26T01:04:08.773Z,97805.19
2023-03-26T01:06:45.175Z,97803.50
2023-03-26T01:09:16.536Z,97798.19
2023-03-26T01:11:44.516Z,97801.97
2023-03-26T01:14:17.869Z,97798.53
2023-03-26T01:16:56.995Z,97794.56
2023-03-26T01:19:38.232Z,97786.47
2023-03-26T01:22:11.878Z,97764.06
2023-03-26T01:24:40.899Z,97780.19
2023-03-26T01:27:09.608Z,97769.94
2023-03-26T01:29:43.993Z,97775.50
2023-03-26T01:32:21.119Z,97771.81
2023-03-26T01:35:14.688Z,97769.94
2023-03-26T01:38:00.285Z,97763.13
2023-03-26T01:40:43.027Z,97760.19
2023-03-26T01:43:22.273Z,97754.59
2023-03-26T01:45:50.647Z,97746.81
2023-03-26T01:48:18.651Z,97744.34
2023-03-26T01:50:46.083Z,97740.19
2023-03-26T01:53:14.422Z,97743.47
2023-03-26T01:55:49.690Z,97731.03
2023-03-26T01:58:30.811Z,97740.75
2023-03-26T02:01:12.663Z,97739.28
2023-03-26T02:03:49.441Z,97736.56
2023-03-26T02:06:39.690Z,97735.84
2023-03-26T02:09:09.523Z,97722.53
2023-03-26T02:11:38.342Z,97721.69
2023-03-26T02:14:06.876Z,97718.19
2023-03-26T02:16:34.382Z,97705.13
2023-03-26T02:19:01.880Z,97708.50
2023-03-26T02:21:29.541Z,97684.00
2023-03-26T02:24:02.544Z,97685.47
2023-03-26T02:26:34.234Z,97672.69
2023-03-26T02:29:08.645Z,97676.97
2023-03-26T02:31:37.841Z,97669.50
2023-03-26T02:34:05.451Z,97672.72
2023-03-26T02:36:35.906Z,97665.84
2023-03-26T02:39:04.922Z,97658.38
2023-03-26T02:41:35.975Z,97667.94
2023-03-26T02:44:08.166Z,97666.59
2023-03-26T02:46:54.382Z,97655.50
2023-03-26T02:49:40.644Z,97655.28
2023-03-26T02:52:08.315Z,97657.47
2023-03-26T02:54:37.077Z,97655.38
2023-03-26T02:57:07.561Z,97650.66
2023-03-26T02:59:54.896Z,97643.63
2023-03-26T03:02:40.299Z,97644.47
2023-03-26T03:05:26.736Z,97644.25
2023-03-26T03:08:14.424Z,97648.88
2023-03-26T03:11:02.746Z,97638.81
2023-03-26T03:13:40.198Z,97633.03
2023-03-26T03:16:08.869Z,97635.44
2023-03-26T03:18:36.643Z,97626.66
2023-03-26T03:21:06.100Z,97624.78
2023-03-26T03:23:33.745Z,97617.31
2023-03-26T03:26:18.118Z,97619.28
2023-03-26T03:28:51.408Z,97611.44
2023-03-26T03:31:19.093Z,97614.44
2023-03-26T03:33:46.697Z,97615.88
2023-03-26T03:36:21.972Z,97605.53
2023-03-26T03:39:02.279Z,97603.41
2023-03-26T03:41:30.667Z,97602.81
2023-03-26T03:44:01.493Z,97588.53
2023-03-26T03:46:31.182Z,97588.53
2023-03-26T03:48:58.869Z,97583.00
2023-03-26T03:51:31.490Z,97576.59
2023-03-26T03:54:01.225Z,97573.28
2023-03-26T03:57:02.250Z,97568.28
2023-03-26T03:59:54.244Z,97574.84
2023-03-26T04:02:26.748Z,97570.03
2023-03-26T04:04:59.075Z,97562.53
2023-03-26T04:07:28.490Z,97550.25
2023-03-26T04:10:06.676Z,97551.69
2023-03-26T04:12:56.870Z,97545.66
2023-03-26T04:15:41.123Z,97552.19
2023-03-26T04:18:10.637Z,97548.53
2023-03-26T04:20:46.632Z,97552.31
2023-03-26T04:23:21.223Z,97551.25
2023-03-26T04:25:54.064Z,97548.22
2023-03-26T04:28:53.404Z,97537.69
2023-03-26T04:31:29.140Z,97528.34
2023-03-26T04:34:01.543Z,97525.91
2023-03-26T04:36:32.144Z,97509.53
2023-03-26T04:39:02.624Z,97509.34
2023-03-26T04:41:49.991Z,97506.19
2023-03-26T04:44:22.371Z,97503.06
2023-03-26T04:47:00.990Z,97490.56
2023-03-26T04:49:35.614Z,97486.94
2023-03-26T04:52:03.226Z,97485.72
2023-03-26T04:54:59.670Z,97474.72
2023-03-26T04:57:37.070Z,97475.72
2023-03-26T05:00:19.308Z,97469.03
2023-03-26T05:02:56.225Z,97464.69
2023-03-26T05:05:24.939Z,97448.09
2023-03-26T05:07:52.572Z,97443.97
2023-03-26T05:10:22.060Z,97446.44
2023-03-26T05:12:57.669Z,97439.97
2023-03-26T05:15:31.910Z,97436.91
2023-03-26T05:17:59.337Z,97448.22
2023-03-26T05:20:35.941Z,97430.31
2023-03-26T05:23:07.355Z,97433.84
2023-03-26T05:25:37.743Z,97431.56
2023-03-26T05:28:12.163Z,97442.78
2023-03-26T05:30:48.377Z,97429.34
2023-03-26T05:33:16.389Z,97440.44
2023-03-26T05:36:03.675Z,97426.94
2023-03-26T05:38:32.940Z,97431.03
2023-03-26T05:41:03.739Z,97432.72
2023-03-26T05:43:32.102Z,97419.31
2023-03-26T05:46:15.390Z,97407.66
2023-03-26T05:48:43.529Z,97397.63
2023-03-26T05:51:12.372Z,97402.53
2023-03-26T05:53:43.405Z,97397.50
2023-03-26T05:56:29.168Z,97396.41
2023-03-26T05:59:16.214Z,97402.16
2023-03-26T06:02:23.027Z,97397.06
2023-03-26T06:05:16.736Z,97391.66
2023-03-26T06:08:08.399Z,97378.44
2023-03-26T06:10:39.175Z,97373.75
2023-03-26T06:13:06.834Z,97373.97
2023-03-26T06:15:37.645Z,97361.28
2023-03-26T06:18:26.082Z,97355.50
2023-03-26T06:21:16.795Z,97347.16
2023-03-26T06:23:50.095Z,97345.31
2023-03-26T06:26:35.793Z,97349.78
2023-03-26T06:29:22.465Z,97352.66
2023-03-26T06:31:57.079Z,97357.91
2023-03-26T06:34:42.531Z,97355.06
2023-03-26T06:37:09.919Z,97337.53
2023-03-26T06:39:37.619Z,97326.63
2023-03-26T06:42:15.728Z,97320.34
2023-03-26T06:45:01.269Z,97311.53
2023-03-26T06:47:34.849Z,97309.00
2023-03-26T06:50:20.899Z,97305.66
2023-03-26T06:53:14.390Z,97300.94
2023-03-26T06:55:55.316Z,97292.22
2023-03-26T06:58:34.300Z,97289.59
2023-03-26T07:01:20.299Z,97288.97
2023-03-26T07:04:06.342Z,97276.91
2023-03-26T07:06:59.840Z,97277.84
2023-03-26T07:09:45.617Z,97275.94
2023-03-26T07:12:39.089Z,97276.66
2023-03-26T07:15:21.621Z,97274.56
2023-03-26T07:18:09.415Z,97271.00
2023-03-26T07:20:39.098Z,97258.81
2023-03-26T07:23:07.385Z,97261.06
2023-03-26T07:26:28.824Z,97258.44
2023-03-26T07:29:18.589Z,97256.66
2023-03-26T07:32:40.555Z,97256.13
2023-03-26T07:35:40.987Z,97239.91
2023-03-26T07:38:47.757Z,97231.13
2023-03-26T07:42:14.350Z,97235.75
2023-03-26T07:45:24.739Z,97224.31
2023-03-26T07:48:19.180Z,97220.91
2023-03-26T07:51:05.800Z,97218.31
2023-03-26T07:53:49.588Z,97211.63
2023-03-26T07:56:45.204Z,97227.53
2023-03-26T08:00:00.569Z,97241.22
2023-03-26T08:03:07.554Z,97247.09
2023-03-26T08:06:14.596Z,97235.94
2023-03-26T08:09:46.624Z,97218.06
2023-03-26T08:12:54.402Z,97219.91
2023-03-26T08:15:29.195Z,97217.09
2023-03-26T08:18:06.424Z,97207.66
2023-03-26T08:20:41.597Z,97196.81
2023-03-26T08:23:21.880Z,97196.56
2023-03-26T08:26:05.092Z,97201.13
2023-03-26T08:28:37.920Z,97201.97
2023-03-26T08:31:05.876Z,97196.81
2023-03-26T08:33:36.004Z,97183.69
2023-03-26T08:36:04.758Z,97164.09
2023-03-26T08:38:32.163Z,97170.31
2023-03-26T08:41:05.252Z,97171.88
2023-03-26T08:44:02.789Z,97171.00
2023-03-26T08:47:04.423Z,97169.38
2023-03-26T08:49:50.311Z,97159.56
2023-03-26T08:52:50.393Z,97153.50
2023-03-26T08:55:50.593Z,97151.81
2023-03-26T08:58:42.509Z,97146.16
2023-03-26T09:01:34.862Z,97147.25
2023-03-26T09:04:23.911Z,97135.66
2023-03-26T09:07:06.988Z,97133.75
2023-03-26T09:09:53.235Z,97144.97
2023-03-26T09:12:39.188Z,97146.63
2023-03-26T09:15:10.082Z,97142.19
2023-03-26T09:17:46.522Z,97138.69
2023-03-26T09:20:34.067Z,97127.72
2023-03-26T09:23:19.556Z,97140.31
2023-03-26T09:26:04.480Z,97143.78
2023-03-26T09:28:59.113Z,97133.59
2023-03-26T09:32:03.329Z,97130.63
2023-03-26T09:34:57.080Z,97124.81
2023-03-26T09:37:26.893Z,97139.81
2023-03-26T09:40:18.754Z,97132.31
2023-03-26T09:42:46.223Z,97136.25
2023-03-26T09:45:50.871Z,97117.44
2023-03-26T09:48:27.107Z,97128.19
2023-03-26T09:51:03.939Z,97119.50
2023-03-26T09:53:57.958Z,97116.94
2023-03-26T09:56:39.737Z,97111.78
2023-03-26T09:59:26.136Z,97102.16
2023-03-26T10:02:16.491Z,97089.56
2023-03-26T10:05:10.165Z,97083.81
2023-03-26T10:07:57.082Z,97086.59
2023-03-26T10:10:34.177Z,97091.78
2023-03-26T10:13:14.789Z,97104.50
2023-03-26T10:16:01.200Z,97104.22
2023-03-26T10:18:49.938Z,97090.47
2023-03-26T10:21:53.246Z,97095.44
2023-03-26T10:24:21.069Z,97095.19
2023-03-26T10:27:09.940Z,97100.03
2023-03-26T10:29:59.423Z,97097.03
2023-03-26T10:32:37.914Z,97092.00
2023-03-26T10:35:22.359Z,97085.38
2023-03-26T10:38:16.301Z,97112.75
2023-03-26T10:41:00.584Z,97119.19
2023-03-26T10:43:57.711Z,97102.63
2023-03-26T10:47:00.212Z,97117.47
2023-03-26T10:49:36.148Z,97129.66
2023-03-26T10:52:06.853Z,97120.81
2023-03-26T10:55:06.657Z,97114.38
2023-03-26T10:57:49.969Z,97115.22
2023-03-26T11:00:25.573Z,97110.00
2023-03-26T11:03:05.019Z,97109.03
2023-03-26T11:05:52.821Z,97117.50
2023-03-26T11:08:37.856Z,97114.13
2023-03-26T11:11:11.136Z,97106.34
2023-03-26T11:13:58.724Z,97110.91
2023-03-26T11:16:44.182Z,97096.41
2023-03-26T11:19:20.941Z,97113.22
2023-03-26T11:22:07.974Z,97111.94
2023-03-26T11:24:44.208Z,97113.22
2023-03-26T11:27:15.314Z,97104.72
2023-03-26T11:30:09.326Z,97108.31
2023-03-26T11:32:42.986Z,97099.84
2023-03-26T11:35:40.640Z,97088.16
2023-03-26T11:38:22.015Z,97084.13
2023-03-26T11:40:53.272Z,97079.00
2023-03-26T11:43:36.727Z,97079.06
2023-03-26T11:46:07.432Z,97080.72
2023-03-26T11:48:34.837Z,97067.03
2023-03-26T11:51:07.693Z,97063.81
2023-03-26T11:53:39.348Z,97061.72
2023-03-26T11:56:18.935Z,97060.13
2023-03-26T11:59:05.877Z,97058.38
2023-03-26T12:02:18.895Z,97059.22
2023-03-26T12:04:55.140Z,97060.56
2023-03-26T12:07:33.864Z,97067.69
2023-03-26T12:10:17.873Z,97099.09
2023-03-26T12:12:47.947Z,97108.88
2023-03-26T12:15:20.357Z,97121.69
2023-03-26T12:17:55.874Z,97123.50
2023-03-26T12:20:26.313Z,97095.94
2023-03-26T12:22:59.333Z,97074.28
2023-03-26T12:25:40.180Z,97062.53
2023-03-26T12:28:13.793Z,97066.47
2023-03-26T12:30:45.016Z,97080.66
2023-03-26T12:33:29.649Z,97091.72
2023-03-26T12:35:58.410Z,97092.44
2023-03-26T12:38:40.618Z,97100.09
2023-03-26T12:41:08.612Z,97090.25
2023-03-26T12:44:49.858Z,97083.31
2023-03-26T12:47:54.509Z,97069.13
2023-03-26T12:49:35.470Z,97073.31
2023-03-26T12:52:49.039Z,97069.34
2023-03-26T12:56:00.612Z,97066.47
2023-03-26T12:58:41.087Z,97064.19
2023-03-26T13:01:46.449Z,97059.16
2023-03-26T13:04:37.877Z,97050.97
2023-03-26T13:07:22.104Z,97038.16
2023-03-26T13:09:55.975Z,97027.69
2023-03-26T13:13:07.533Z,97015.69
2023-03-26T13:15:44.308Z,97009.84
2023-03-26T13:18:43.595Z,97008.94
2023-03-26T13:21:21.962Z,97004.00
2023-03-26T13:24:04.574Z,96998.19
2023-03-26T13:26:59.736Z,96997.50
2023-03-26T13:29:57.124Z,96999.41
2023-03-26T13:32:37.824Z,96999.69
2023-03-26T13:35:46.448Z,96987.34
2023-03-26T13:38:38.415Z,96979.31
2023-03-26T13:41:30.881Z,96994.19
2023-03-26T13:44:24.381Z,96984.84
2023-03-26T13:47:00.659Z,96995.28
2023-03-26T13:50:03.978Z,96994.72
2023-03-26T13:52:39.958Z,96992.31
2023-03-26T13:55:29.533Z,96982.94
2023-03-26T13:58:08.682Z,96980.13
2023-03-26T14:01:04.248Z,96981.50
2023-03-26T14:04:05.734Z,96971.88
2023-03-26T14:06:48.870Z,96976.00
2023-03-26T14:09:32.090Z,96975.06
2023-03-26T14:12:21.577Z,96977.78
2023-03-26T14:15:05.833Z,96971.44
2023-03-26T14:17:39.102Z,96967.47
2023-03-26T14:20:19.905Z,96974.63
2023-03-26T14:22:51.443Z,96966.66
2023-03-26T14:25:48.006Z,96955.72
2023-03-26T14:28:34.186Z,96958.84
2023-03-26T14:31:20.562Z,96952.41
2023-03-26T14:33:53.730Z,96956.97
2023-03-26T14:36:38.965Z,96957.28
2023-03-26T14:39:32.132Z,96957.34
2023-03-26T14:42:08.089Z,96964.56
2023-03-26T14:44:56.362Z,96967.28
2023-03-26T14:47:27.158Z,96964.53
2023-03-26T14:50:04.007Z,96963.78
2023-03-26T14:52:34.375Z,96961.91
2023-03-26T14:55:04.393Z,96972.53
2023-03-26T14:57:57.590Z,96973.06
2023-03-26T15:00:45.994Z,96971.59
2023-03-26T15:03:13.514Z,96975.75
2023-03-26T15:06:26.710Z,96996.09
2023-03-26T15:09:32.740Z,97034.63
2023-03-26T15:12:25.648Z,97041.50
2023-03-26T15:15:40.382Z,97039.31
2023-03-26T15:18:26.588Z,97039.53
2023-03-26T15:21:31.701Z,97036.19
2023-03-26T15:24:13.756Z,97038.16
2023-03-26T15:27:18.649Z,97040.44
2023-03-26T15:30:23.340Z,97063.91
2023-03-26T15:33:18.086Z,97073.88
2023-03-26T15:36:03.613Z,97073.34
2023-03-26T15:38:56.050Z,97072.06
2023-03-26T15:41:28.499Z,97068.47
2023-03-26T15:44:24.556Z,97054.59
2023-03-26T15:46:57.621Z,97057.53
2023-03-26T15:49:36.054Z,97054.75
2023-03-26T15:52:23.957Z,97058.06
2023-03-26T15:55:26.388Z,97059.91
2023-03-26T15:58:02.614Z,97051.72
2023-03-26T16:00:34.271Z,97051.91
2023-03-26T16:03:12.769Z,97062.16
2023-03-26T16:06:11.325Z,97055.69
2023-03-26T16:08:47.662Z,97052.63
2023-03-26T16:11:15.497Z,97057.75
2023-03-26T16:14:31.969Z,97058.03
2023-03-26T16:17:00.024Z,97038.50
2023-03-26T16:19:36.217Z,97039.88
2023-03-26T16:22:07.536Z,97037.38
2023-03-26T16:24:37.208Z,97042.53
2023-03-26T16:27:25.665Z,97043.75
2023-03-26T16:30:11.875Z,97034.34
2023-03-26T16:32:46.632Z,97039.72
2023-03-26T16:35:13.936Z,97044.72
2023-03-26T16:38:06.029Z,97045.56
2023-03-26T16:40:42.570Z,97052.75
2023-03-26T16:43:40.914Z,97052.47
2023-03-26T16:46:30.495Z,97057.59
2023-03-26T16:49:05.655Z,97068.56
2023-03-26T16:52:14.996Z,97067.16
2023-03-26T16:54:52.615Z,97081.00
2023-03-26T16:57:28.069Z,97077.84
2023-03-26T17:00:07.369Z,97089.72
2023-03-26T17:02:50.334Z,97088.63
2023-03-26T17:05:21.140Z,97095.13
2023-03-26T17:07:53.436Z,97092.34
2023-03-26T17:10:40.234Z,97092.31
2023-03-26T17:13:36.617Z,97097.28
2023-03-26T17:16:25.598Z,97105.19
2023-03-26T17:19:25.295Z,97106.81
2023-03-26T17:22:22.098Z,97113.88
2023-03-26T17:25:06.219Z,97111.75
2023-03-26T17:28:20.069Z,97112.31
2023-03-26T17:31:17.863Z,97110.75
2023-03-26T17:33:45.564Z,97109.91
2023-03-26T17:36:12.884Z,97106.16
2023-03-26T17:38:40.115Z,97106.97
2023-03-26T17:41:16.402Z,97104.72
2023-03-26T17:43:52.148Z,97105.00
2023-03-26T17:46:38.692Z,97100.47
2023-03-26T17:49:26.608Z,97106.66
2023-03-26T17:52:16.916Z,97100.03
2023-03-26T17:54:49.662Z,97103.97
2023-03-26T17:57:33.778Z,97103.69
2023-03-26T18:00:01.682Z,97110.34
2023-03-26T18:02:42.314Z,97106.94
2023-03-26T18:05:12.611Z,97100.47
2023-03-26T18:07:44.018Z,97112.47
2023-03-26T18:10:17.935Z,97106.44
2023-03-26T18:13:15.991Z,97108.78
2023-03-26T18:16:21.199Z,97117.88
2023-03-26T18:18:59.015Z,97105.28
2023-03-26T18:21:36.034Z,97106.09
2023-03-26T18:24:05.442Z,97098.59
2023-03-26T18:26:36.715Z,97099.81
2023-03-26T18:29:27.666Z,97099.31
2023-03-26T18:32:22.113Z,97103.59
2023-03-26T18:34:58.757Z,97101.94
2023-03-26T18:37:34.190Z,97100.97
2023-03-26T18:40:24.839Z,97108.13
2023-03-26T18:42:55.124Z,97119.22
2023-03-26T18:45:34.008Z,97108.84
2023-03-26T18:48:13.841Z,97110.41
2023-03-26T18:50:42.499Z,97110.56
2023-03-26T18:53:20.627Z,97111.94
2023-03-26T18:55:50.556Z,97106.41
2023-03-26T18:58:23.071Z,97106.50
2023-03-26T19:00:52.916Z,97104.16
2023-03-26T19:03:24.289Z,97102.34
2023-03-26T19:05:53.698Z,97105.53
2023-03-26T19:08:23.715Z,97101.72
2023-03-26T19:10:52.619Z,97104.47
2023-03-26T19:13:23.676Z,97103.97
2023-03-26T19:15:52.808Z,97098.59
2023-03-26T19:18:24.000Z,97103.59
2023-03-26T19:21:02.961Z,97099.75
2023-03-26T19:23:38.158Z,97092.25
2023-03-26T19:26:09.236Z,97093.34
2023-03-26T19:28:51.450Z,97087.22
2023-03-26T19:31:25.891Z,97094.50
2023-03-26T19:34:17.909Z,97097.41
2023-03-26T19:36:58.307Z,97093.69
2023-03-26T19:42:06.470Z,97098.00
2023-03-26T19:44:39.468Z,97092.44
2023-03-26T19:47:14.023Z,97095.78
2023-03-26T19:49:52.912Z,97094.28
2023-03-26T19:52:24.852Z,97084.63
2023-03-26T19:55:02.116Z,97089.97
2023-03-26T19:57:36.325Z,97085.97
2023-03-26T20:00:13.180Z,97079.94
2023-03-26T20:02:42.358Z,97078.16
2023-03-26T20:05:22.935Z,97085.47
2023-03-26T20:07:50.825Z,97077.31
2023-03-26T20:10:18.503Z,97077.59
2023-03-26T20:12:45.943Z,97080.50
2023-03-26T20:15:23.443Z,97071.31
2023-03-26T20:17:54.376Z,97081.97
2023-03-26T20:20:24.683Z,97082.84
2023-03-26T20:22:55.797Z,97087.22
2023-03-26T20:25:34.727Z,97088.66
2023-03-26T20:28:02.382Z,97090.28
2023-03-26T20:33:12.416Z,97088.31
2023-03-26T20:35:41.450Z,97098.75
2023-03-26T20:38:09.683Z,97087.88
2023-03-26T20:40:38.366Z,97089.41
2023-03-26T20:43:14.393Z,97085.63
2023-03-26T20:45:42.024Z,97081.25
2023-03-26T20:48:12.558Z,97077.75
2023-03-26T20:50:50.412Z,97066.97
2023-03-26T20:53:18.919Z,97068.97
2023-03-26T20:55:46.671Z,97055.28
2023-03-26T20:58:17.759Z,97060.84
2023-03-26T21:00:46.530Z,97060.63
2023-03-26T21:03:15.868Z,97065.31
2023-03-26T21:05:43.560Z,97078.59
2023-03-26T21:08:17.188Z,97075.94
2023-03-26T21:10:46.055Z,97074.59
2023-03-26T21:13:25.251Z,97074.78
2023-03-26T21:15:53.546Z,97079.31
2023-03-26T21:18:21.855Z,97078.03
2023-03-26T21:21:10.765Z,97086.69
2023-03-26T21:23:59.140Z,97085.97
2023-03-26T21:26:31.740Z,97084.50
2023-03-26T21:28:59.274Z,97085.72
2023-03-26T21:31:30.866Z,97081.63
2023-03-26T21:33:58.978Z,97088.06
2023-03-26T21:36:27.210Z,97085.47
2023-03-26T21:38:54.804Z,97081.44
2023-03-26T21:41:25.213Z,97082.97
2023-03-26T21:43:52.570Z,97084.44
2023-03-26T21:46:20.665Z,97088.41
2023-03-26T21:48:48.207Z,97089.72
2023-03-26T21:51:19.281Z,97089.72
2023-03-26T21:53:47.048Z,97096.38
2023-03-26T21:56:40.362Z,97098.66
2023-03-26T21:59:20.496Z,97098.81
2023-03-26T22:02:02.900Z,97097.50
2023-03-26T22:04:46.792Z,97093.06
2023-03-26T22:07:20.869Z,97090.22
2023-03-26T22:09:48.535Z,97102.63
2023-03-26T22:12:16.854Z,97093.94
2023-03-26T22:14:44.210Z,97105.13
2023-03-26T22:17:11.592Z,97096.56
2023-03-26T22:19:38.919Z,97096.22
2023-03-26T22:22:06.229Z,97091.22
2023-03-26T22:24:34.413Z,97095.75
2023-03-26T22:27:01.871Z,97106.50
2023-03-26T22:29:29.247Z,97100.75
2023-03-26T22:31:56.623Z,97108.41
2023-03-26T22:34:24.522Z,97102.34
2023-03-26T22:36:53.123Z,97103.72
2023-03-26T22:39:20.497Z,97109.59
2023-03-26T22:41:47.949Z,97112.09
2023-03-26T22:44:20.260Z,97113.75
2023-03-26T22:46:51.145Z,97124.34
2023-03-26T22:49:18.913Z,97118.19
2023-03-26T22:51:46.784Z,97123.06
2023-03-26T22:54:14.626Z,97125.22
2023-03-26T22:56:43.529Z,97120.06
2023-03-26T22:59:11.208Z,97123.16
2023-03-26T23:01:39.058Z,97127.47
2023-03-26T23:04:07.100Z,97132.00
2023-03-26T23:06:34.572Z,97134.16
2023-03-26T23:09:01.943Z,97129.13
2023-03-26T23:11:30.668Z,97138.53
2023-03-26T23:13:58.118Z,97142.38
2023-03-26T23:16:26.472Z,97141.66
2023-03-26T23:18:53.944Z,97141.78
2023-03-26T23:21:23.010Z,97151.66
2023-03-26T23:23:52.276Z,97150.34
2023-03-26T23:26:19.910Z,97156.44
2023-03-26T23:28:47.830Z,97154.78
2023-03-26T23:31:15.241Z,97161.16
2023-03-26T23:33:50.338Z,97164.03
2023-03-26T23:36:19.313Z,97169.38
2023-03-26T23:38:48.389Z,97168.66
2023-03-26T23:41:18.805Z,97167.59
2023-03-26T23:43:54.720Z,97175.91
2023-03-26T23:46:30.834Z,97180.06
2023-03-26T23:49:04.910Z,97183.06
2023-03-26T23:51:32.930Z,97190.31
2023-03-26T23:54:01.500Z,97191.50
2023-03-26T23:56:32.338Z,97188.88
2023-03-26T23:59:00.771Z,97193.28
